Terminal Aerodrome Forecast
Issued by NWS Grand Forks, ND

Home | Current Version | Previous Version | Graphics & Text | Print | Product List | Glossary On
Versions: 1 2 3 4 5 6 7 8 9 10 11 12 13 14 15 16 17 18 19
000
FTUS43 KFGF 181126
TAFGFK
TAF
KGFK 181126Z 1812/1912 06009KT 6SM -SN OVC035
     FM181300 06011KT 1SM -SN OVC030
     FM181500 04012KT 1/2SM -SN BLSN OVC025
     FM181800 02018KT 3/4SM BLSN OVC030
      TEMPO 1818/1819 -SN OVC015
     FM182000 01019G27KT 3SM BLSN OVC035
     FM182100 01018KT P6SM OVC030
     FM190100 36014KT P6SM BKN050=

USA.gov is the U.S. government's official web portal to all federal, state and local government web resources and services.